sensor_id;sensor_type;location;lat;lon;timestamp;temperature;humidity
78514;SHT31;67814;51.976;5.810;2023-04-15T00:00:39;12.1;47.9
78514;SHT31;67814;51.976;5.810;2023-04-15T00:03:10;12.1;48.1
78514;SHT31;67814;51.976;5.810;2023-04-15T00:05:40;12.1;48.1
78514;SHT31;67814;51.976;5.810;2023-04-15T00:08:10;12.0;48.2
78514;SHT31;67814;51.976;5.810;2023-04-15T00:10:40;12.0;48.4
78514;SHT31;67814;51.976;5.810;2023-04-15T00:13:13;12.0;48.5
78514;SHT31;67814;51.976;5.810;2023-04-15T00:15:43;12.0;48.7
78514;SHT31;67814;51.976;5.810;2023-04-15T00:18:12;12.0;49.0
78514;SHT31;67814;51.976;5.810;2023-04-15T00:20:42;11.9;48.9
78514;SHT31;67814;51.976;5.810;2023-04-15T00:23:11;11.9;49.2
78514;SHT31;67814;51.976;5.810;2023-04-15T00:25:41;11.9;49.2
78514;SHT31;67814;51.976;5.810;2023-04-15T00:28:12;11.9;49.4
78514;SHT31;67814;51.976;5.810;2023-04-15T00:30:42;11.9;49.3
78514;SHT31;67814;51.976;5.810;2023-04-15T00:33:12;11.9;49.6
78514;SHT31;67814;51.976;5.810;2023-04-15T00:35:42;11.8;49.8
78514;SHT31;67814;51.976;5.810;2023-04-15T00:38:12;11.8;49.9
78514;SHT31;67814;51.976;5.810;2023-04-15T00:40:42;11.8;50.0
78514;SHT31;67814;51.976;5.810;2023-04-15T00:43:12;11.8;50.1
78514;SHT31;67814;51.976;5.810;2023-04-15T00:45:42;11.8;50.2
78514;SHT31;67814;51.976;5.810;2023-04-15T00:48:13;11.7;50.3
78514;SHT31;67814;51.976;5.810;2023-04-15T00:50:44;11.7;50.5
78514;SHT31;67814;51.976;5.810;2023-04-15T00:53:13;11.7;50.9
78514;SHT31;67814;51.976;5.810;2023-04-15T00:55:44;11.7;50.8
78514;SHT31;67814;51.976;5.810;2023-04-15T00:58:13;11.7;51.0
78514;SHT31;67814;51.976;5.810;2023-04-15T01:00:44;11.6;51.1
78514;SHT31;67814;51.976;5.810;2023-04-15T01:03:14;11.6;51.3
78514;SHT31;67814;51.976;5.810;2023-04-15T01:05:43;11.6;51.3
78514;SHT31;67814;51.976;5.810;2023-04-15T01:08:15;11.6;51.4
78514;SHT31;67814;51.976;5.810;2023-04-15T01:10:45;11.6;51.4
78514;SHT31;67814;51.976;5.810;2023-04-15T01:13:17;11.6;51.6
78514;SHT31;67814;51.976;5.810;2023-04-15T01:15:48;11.6;51.8
78514;SHT31;67814;51.976;5.810;2023-04-15T01:18:18;11.6;51.7
78514;SHT31;67814;51.976;5.810;2023-04-15T01:20:48;11.6;52.0
78514;SHT31;67814;51.976;5.810;2023-04-15T01:23:19;11.6;52.0
78514;SHT31;67814;51.976;5.810;2023-04-15T01:25:50;11.6;52.4
78514;SHT31;67814;51.976;5.810;2023-04-15T01:28:21;11.6;52.2
78514;SHT31;67814;51.976;5.810;2023-04-15T01:31:08;11.6;52.4
78514;SHT31;67814;51.976;5.810;2023-04-15T01:33:40;11.5;52.5
78514;SHT31;67814;51.976;5.810;2023-04-15T01:36:10;11.5;52.5
78514;SHT31;67814;51.976;5.810;2023-04-15T01:38:40;11.5;52.7
78514;SHT31;67814;51.976;5.810;2023-04-15T01:41:09;11.5;52.7
78514;SHT31;67814;51.976;5.810;2023-04-15T01:43:39;11.5;52.9
78514;SHT31;67814;51.976;5.810;2023-04-15T01:46:08;11.5;53.0
78514;SHT31;67814;51.976;5.810;2023-04-15T01:48:39;11.4;53.2
78514;SHT31;67814;51.976;5.810;2023-04-15T01:51:09;11.4;53.1
78514;SHT31;67814;51.976;5.810;2023-04-15T01:53:38;11.4;53.2
78514;SHT31;67814;51.976;5.810;2023-04-15T01:56:08;11.4;53.3
78514;SHT31;67814;51.976;5.810;2023-04-15T01:58:38;11.4;53.3
78514;SHT31;67814;51.976;5.810;2023-04-15T02:01:08;11.4;53.4
78514;SHT31;67814;51.976;5.810;2023-04-15T02:03:39;11.4;53.4
78514;SHT31;67814;51.976;5.810;2023-04-15T02:06:09;11.4;53.6
78514;SHT31;67814;51.976;5.810;2023-04-15T02:08:38;11.4;53.6
78514;SHT31;67814;51.976;5.810;2023-04-15T02:11:08;11.4;53.5
78514;SHT31;67814;51.976;5.810;2023-04-15T02:13:37;11.4;53.6
78514;SHT31;67814;51.976;5.810;2023-04-15T02:16:16;11.4;53.9
78514;SHT31;67814;51.976;5.810;2023-04-15T02:18:46;11.3;53.7
78514;SHT31;67814;51.976;5.810;2023-04-15T02:21:18;11.3;53.9
78514;SHT31;67814;51.976;5.810;2023-04-15T02:23:47;11.3;53.9
78514;SHT31;67814;51.976;5.810;2023-04-15T02:26:19;11.3;53.8
78514;SHT31;67814;51.976;5.810;2023-04-15T02:28:48;11.3;53.8
78514;SHT31;67814;51.976;5.810;2023-04-15T02:31:18;11.3;53.8
78514;SHT31;67814;51.976;5.810;2023-04-15T02:33:48;11.3;53.9
78514;SHT31;67814;51.976;5.810;2023-04-15T02:36:17;11.2;54.0
78514;SHT31;67814;51.976;5.810;2023-04-15T02:38:47;11.2;54.0
78514;SHT31;67814;51.976;5.810;2023-04-15T02:41:17;11.2;54.0
78514;SHT31;67814;51.976;5.810;2023-04-15T02:43:49;11.2;54.0
78514;SHT31;67814;51.976;5.810;2023-04-15T02:46:18;11.2;54.0
78514;SHT31;67814;51.976;5.810;2023-04-15T02:48:49;11.2;54.2
78514;SHT31;67814;51.976;5.810;2023-04-15T02:51:21;11.2;54.5
78514;SHT31;67814;51.976;5.810;2023-04-15T02:53:52;11.2;54.4
78514;SHT31;67814;51.976;5.810;2023-04-15T02:56:23;11.2;54.3
78514;SHT31;67814;51.976;5.810;2023-04-15T02:58:53;11.2;54.5
78514;SHT31;67814;51.976;5.810;2023-04-15T03:01:23;11.1;54.0
78514;SHT31;67814;51.976;5.810;2023-04-15T03:03:53;11.1;54.1
78514;SHT31;67814;51.976;5.810;2023-04-15T03:06:23;11.1;54.1
78514;SHT31;67814;51.976;5.810;2023-04-15T03:08:53;11.0;54.0
78514;SHT31;67814;51.976;5.810;2023-04-15T03:11:23;10.9;54.5
78514;SHT31;67814;51.976;5.810;2023-04-15T03:13:53;10.9;54.7
78514;SHT31;67814;51.976;5.810;2023-04-15T03:16:23;10.8;55.2
78514;SHT31;67814;51.976;5.810;2023-04-15T03:18:52;10.8;54.9
78514;SHT31;67814;51.976;5.810;2023-04-15T03:21:22;10.7;55.7
78514;SHT31;67814;51.976;5.810;2023-04-15T03:23:52;10.6;55.6
78514;SHT31;67814;51.976;5.810;2023-04-15T03:26:25;10.6;55.8
78514;SHT31;67814;51.976;5.810;2023-04-15T03:28:56;10.5;55.9
78514;SHT31;67814;51.976;5.810;2023-04-15T03:31:28;10.5;56.0
78514;SHT31;67814;51.976;5.810;2023-04-15T03:33:59;10.5;56.7
78514;SHT31;67814;51.976;5.810;2023-04-15T03:36:30;10.4;56.8
78514;SHT31;67814;51.976;5.810;2023-04-15T03:39:00;10.4;56.6
78514;SHT31;67814;51.976;5.810;2023-04-15T03:41:30;10.4;56.9
78514;SHT31;67814;51.976;5.810;2023-04-15T03:44:00;10.3;57.2
78514;SHT31;67814;51.976;5.810;2023-04-15T03:46:30;10.3;57.7
78514;SHT31;67814;51.976;5.810;2023-04-15T03:49:00;10.2;57.3
78514;SHT31;67814;51.976;5.810;2023-04-15T03:51:30;10.2;57.7
78514;SHT31;67814;51.976;5.810;2023-04-15T03:53:59;10.1;57.9
78514;SHT31;67814;51.976;5.810;2023-04-15T03:56:29;10.1;58.1
78514;SHT31;67814;51.976;5.810;2023-04-15T03:58:59;10.1;58.0
78514;SHT31;67814;51.976;5.810;2023-04-15T04:01:28;10.1;58.2
78514;SHT31;67814;51.976;5.810;2023-04-15T04:03:58;10.0;58.1
78514;SHT31;67814;51.976;5.810;2023-04-15T04:06:28;10.0;58.3
78514;SHT31;67814;51.976;5.810;2023-04-15T04:08:58;9.9;59.1
78514;SHT31;67814;51.976;5.810;2023-04-15T04:11:27;9.9;58.8
78514;SHT31;67814;51.976;5.810;2023-04-15T04:13:58;9.9;58.9
78514;SHT31;67814;51.976;5.810;2023-04-15T04:16:27;9.8;58.9
78514;SHT31;67814;51.976;5.810;2023-04-15T04:18:57;9.8;59.0
78514;SHT31;67814;51.976;5.810;2023-04-15T04:21:27;9.7;59.2
78514;SHT31;67814;51.976;5.810;2023-04-15T04:23:57;9.7;59.2
78514;SHT31;67814;51.976;5.810;2023-04-15T04:26:26;9.7;59.5
78514;SHT31;67814;51.976;5.810;2023-04-15T04:28:56;9.6;59.6
78514;SHT31;67814;51.976;5.810;2023-04-15T04:31:25;9.6;59.8
78514;SHT31;67814;51.976;5.810;2023-04-15T04:33:55;9.5;60.2
78514;SHT31;67814;51.976;5.810;2023-04-15T04:36:25;9.5;60.3
78514;SHT31;67814;51.976;5.810;2023-04-15T04:38:54;9.4;60.7
78514;SHT31;67814;51.976;5.810;2023-04-15T04:41:24;9.4;61.0
78514;SHT31;67814;51.976;5.810;2023-04-15T04:43:53;9.4;61.3
78514;SHT31;67814;51.976;5.810;2023-04-15T04:46:23;9.3;61.4
78514;SHT31;67814;51.976;5.810;2023-04-15T04:48:53;9.3;61.7
78514;SHT31;67814;51.976;5.810;2023-04-15T04:51:22;9.2;61.8
78514;SHT31;67814;51.976;5.810;2023-04-15T04:53:52;9.2;61.8
78514;SHT31;67814;51.976;5.810;2023-04-15T04:56:23;9.2;62.2
78514;SHT31;67814;51.976;5.810;2023-04-15T04:58:52;9.3;61.9
78514;SHT31;67814;51.976;5.810;2023-04-15T05:01:22;9.3;62.0
78514;SHT31;67814;51.976;5.810;2023-04-15T05:03:53;9.3;62.2
78514;SHT31;67814;51.976;5.810;2023-04-15T05:06:23;9.3;62.3
78514;SHT31;67814;51.976;5.810;2023-04-15T05:08:52;9.3;62.4
78514;SHT31;67814;51.976;5.810;2023-04-15T05:11:23;9.3;62.5
78514;SHT31;67814;51.976;5.810;2023-04-15T05:13:52;9.3;62.5
78514;SHT31;67814;51.976;5.810;2023-04-15T05:16:22;9.3;62.7
78514;SHT31;67814;51.976;5.810;2023-04-15T05:18:52;9.3;62.6
78514;SHT31;67814;51.976;5.810;2023-04-15T05:21:24;9.3;62.7
78514;SHT31;67814;51.976;5.810;2023-04-15T05:23:56;9.3;62.7
78514;SHT31;67814;51.976;5.810;2023-04-15T05:26:26;9.3;63.1
78514;SHT31;67814;51.976;5.810;2023-04-15T05:28:55;9.3;63.1
78514;SHT31;67814;51.976;5.810;2023-04-15T05:31:25;9.3;63.4
78514;SHT31;67814;51.976;5.810;2023-04-15T05:33:54;9.3;63.5
78514;SHT31;67814;51.976;5.810;2023-04-15T05:36:24;9.3;63.6
78514;SHT31;67814;51.976;5.810;2023-04-15T05:38:55;9.4;63.9
78514;SHT31;67814;51.976;5.810;2023-04-15T05:41:24;9.4;64.3
78514;SHT31;67814;51.976;5.810;2023-04-15T05:43:54;9.6;64.1
78514;SHT31;67814;51.976;5.810;2023-04-15T05:46:23;9.9;63.4
78514;SHT31;67814;51.976;5.810;2023-04-15T05:48:55;10.2;62.8
78514;SHT31;67814;51.976;5.810;2023-04-15T05:51:25;10.6;62.1
78514;SHT31;67814;51.976;5.810;2023-04-15T05:53:55;11.1;60.0
78514;SHT31;67814;51.976;5.810;2023-04-15T05:56:24;11.5;58.6
78514;SHT31;67814;51.976;5.810;2023-04-15T05:58:56;11.8;57.7
78514;SHT31;67814;51.976;5.810;2023-04-15T06:01:26;12.3;56.5
78514;SHT31;67814;51.976;5.810;2023-04-15T06:03:58;12.7;55.2
78514;SHT31;67814;51.976;5.810;2023-04-15T06:06:28;13.1;53.9
78514;SHT31;67814;51.976;5.810;2023-04-15T06:08:58;13.3;53.1
78514;SHT31;67814;51.976;5.810;2023-04-15T06:11:28;13.4;52.5
78514;SHT31;67814;51.976;5.810;2023-04-15T06:13:59;13.4;52.3
78514;SHT31;67814;51.976;5.810;2023-04-15T06:16:29;13.4;52.8
78514;SHT31;67814;51.976;5.810;2023-04-15T06:18:59;13.5;52.5
78514;SHT31;67814;51.976;5.810;2023-04-15T06:21:28;13.5;52.7
78514;SHT31;67814;51.976;5.810;2023-04-15T06:23:59;13.5;52.4
78514;SHT31;67814;51.976;5.810;2023-04-15T06:26:30;13.5;52.2
78514;SHT31;67814;51.976;5.810;2023-04-15T06:28:59;13.4;52.5
78514;SHT31;67814;51.976;5.810;2023-04-15T06:31:29;13.4;52.8
78514;SHT31;67814;51.976;5.810;2023-04-15T06:33:58;13.3;53.2
78514;SHT31;67814;51.976;5.810;2023-04-15T06:36:28;13.2;53.6
78514;SHT31;67814;51.976;5.810;2023-04-15T06:38:58;13.2;54.2
78514;SHT31;67814;51.976;5.810;2023-04-15T06:41:29;13.2;53.8
78514;SHT31;67814;51.976;5.810;2023-04-15T06:43:59;13.2;53.5
78514;SHT31;67814;51.976;5.810;2023-04-15T06:46:28;13.2;53.2
78514;SHT31;67814;51.976;5.810;2023-04-15T06:48:58;13.2;53.8
78514;SHT31;67814;51.976;5.810;2023-04-15T06:51:27;13.2;53.4
78514;SHT31;67814;51.976;5.810;2023-04-15T06:53:57;13.2;53.9
78514;SHT31;67814;51.976;5.810;2023-04-15T06:56:27;13.3;53.8
78514;SHT31;67814;51.976;5.810;2023-04-15T06:58:57;13.5;54.1
78514;SHT31;67814;51.976;5.810;2023-04-15T07:01:27;13.6;52.4
78514;SHT31;67814;51.976;5.810;2023-04-15T07:03:56;13.6;52.9
78514;SHT31;67814;51.976;5.810;2023-04-15T07:06:26;13.7;51.2
78514;SHT31;67814;51.976;5.810;2023-04-15T07:08:58;13.7;51.3
78514;SHT31;67814;51.976;5.810;2023-04-15T07:11:28;13.7;50.6
78514;SHT31;67814;51.976;5.810;2023-04-15T07:13:58;13.6;50.5
78514;SHT31;67814;51.976;5.810;2023-04-15T07:16:28;13.6;50.4
78514;SHT31;67814;51.976;5.810;2023-04-15T07:18:58;13.5;50.7
78514;SHT31;67814;51.976;5.810;2023-04-15T07:21:27;13.4;50.8
78514;SHT31;67814;51.976;5.810;2023-04-15T07:23:57;13.3;50.5
78514;SHT31;67814;51.976;5.810;2023-04-15T07:26:27;13.2;50.7
78514;SHT31;67814;51.976;5.810;2023-04-15T07:28:58;13.0;51.6
78514;SHT31;67814;51.976;5.810;2023-04-15T07:31:28;12.8;52.2
78514;SHT31;67814;51.976;5.810;2023-04-15T07:33:58;12.7;52.6
78514;SHT31;67814;51.976;5.810;2023-04-15T07:36:28;12.6;53.0
78514;SHT31;67814;51.976;5.810;2023-04-15T07:38:57;12.4;53.1
78514;SHT31;67814;51.976;5.810;2023-04-15T07:41:28;12.3;53.4
78514;SHT31;67814;51.976;5.810;2023-04-15T07:43:58;12.3;53.7
78514;SHT31;67814;51.976;5.810;2023-04-15T07:46:29;12.2;54.0
78514;SHT31;67814;51.976;5.810;2023-04-15T07:48:59;12.1;54.5
78514;SHT31;67814;51.976;5.810;2023-04-15T07:51:29;12.1;54.9
78514;SHT31;67814;51.976;5.810;2023-04-15T07:53:58;12.1;54.7
78514;SHT31;67814;51.976;5.810;2023-04-15T07:56:28;12.0;54.9
78514;SHT31;67814;51.976;5.810;2023-04-15T07:58:57;12.0;55.6
78514;SHT31;67814;51.976;5.810;2023-04-15T08:01:28;11.9;55.7
78514;SHT31;67814;51.976;5.810;2023-04-15T08:03:59;11.9;55.8
78514;SHT31;67814;51.976;5.810;2023-04-15T08:06:29;11.9;55.9
78514;SHT31;67814;51.976;5.810;2023-04-15T08:08:59;11.9;55.8
78514;SHT31;67814;51.976;5.810;2023-04-15T08:11:30;11.9;55.8
78514;SHT31;67814;51.976;5.810;2023-04-15T08:14:02;11.9;55.6
78514;SHT31;67814;51.976;5.810;2023-04-15T08:16:32;11.9;56.0
78514;SHT31;67814;51.976;5.810;2023-04-15T08:19:02;11.9;57.2
78514;SHT31;67814;51.976;5.810;2023-04-15T08:21:32;12.0;56.5
78514;SHT31;67814;51.976;5.810;2023-04-15T08:24:01;12.0;56.2
78514;SHT31;67814;51.976;5.810;2023-04-15T08:26:31;12.1;55.9
78514;SHT31;67814;51.976;5.810;2023-04-15T08:29:00;12.1;55.3
78514;SHT31;67814;51.976;5.810;2023-04-15T08:31:32;12.2;55.2
78514;SHT31;67814;51.976;5.810;2023-04-15T08:34:02;12.2;54.8
78514;SHT31;67814;51.976;5.810;2023-04-15T08:36:31;12.3;54.4
78514;SHT31;67814;51.976;5.810;2023-04-15T08:39:01;12.3;54.5
78514;SHT31;67814;51.976;5.810;2023-04-15T08:41:39;12.4;54.9
78514;SHT31;67814;51.976;5.810;2023-04-15T08:44:09;12.4;54.4
78514;SHT31;67814;51.976;5.810;2023-04-15T08:46:40;12.5;54.0
78514;SHT31;67814;51.976;5.810;2023-04-15T08:49:11;12.6;53.6
78514;SHT31;67814;51.976;5.810;2023-04-15T08:51:41;12.6;53.5
78514;SHT31;67814;51.976;5.810;2023-04-15T08:54:12;12.7;52.2
78514;SHT31;67814;51.976;5.810;2023-04-15T08:56:42;12.8;52.1
78514;SHT31;67814;51.976;5.810;2023-04-15T08:59:15;12.8;53.1
78514;SHT31;67814;51.976;5.810;2023-04-15T09:01:45;12.8;52.3
78514;SHT31;67814;51.976;5.810;2023-04-15T09:04:15;12.9;51.1
78514;SHT31;67814;51.976;5.810;2023-04-15T09:06:46;12.9;51.6
78514;SHT31;67814;51.976;5.810;2023-04-15T09:09:15;12.9;51.3
78514;SHT31;67814;51.976;5.810;2023-04-15T09:11:45;12.9;51.7
78514;SHT31;67814;51.976;5.810;2023-04-15T09:14:16;12.9;51.8
78514;SHT31;67814;51.976;5.810;2023-04-15T09:16:58;13.0;51.9
78514;SHT31;67814;51.976;5.810;2023-04-15T09:19:31;13.1;51.5
78514;SHT31;67814;51.976;5.810;2023-04-15T09:22:01;13.1;51.7
78514;SHT31;67814;51.976;5.810;2023-04-15T09:24:37;13.1;51.3
78514;SHT31;67814;51.976;5.810;2023-04-15T09:27:08;13.2;51.8
78514;SHT31;67814;51.976;5.810;2023-04-15T09:29:40;13.2;51.3
78514;SHT31;67814;51.976;5.810;2023-04-15T09:32:11;13.3;52.7
78514;SHT31;67814;51.976;5.810;2023-04-15T09:34:41;13.3;51.2
78514;SHT31;67814;51.976;5.810;2023-04-15T09:37:12;13.4;50.6
78514;SHT31;67814;51.976;5.810;2023-04-15T09:39:49;13.5;50.4
78514;SHT31;67814;51.976;5.810;2023-04-15T09:42:19;13.5;50.6
78514;SHT31;67814;51.976;5.810;2023-04-15T09:44:51;13.5;51.3
78514;SHT31;67814;51.976;5.810;2023-04-15T09:47:30;13.6;50.3
78514;SHT31;67814;51.976;5.810;2023-04-15T09:50:00;13.6;50.0
78514;SHT31;67814;51.976;5.810;2023-04-15T09:52:30;13.6;49.2
78514;SHT31;67814;51.976;5.810;2023-04-15T09:54:59;13.6;49.7
78514;SHT31;67814;51.976;5.810;2023-04-15T09:57:36;13.6;49.7
78514;SHT31;67814;51.976;5.810;2023-04-15T10:00:07;13.6;50.0
78514;SHT31;67814;51.976;5.810;2023-04-15T10:02:39;13.7;49.5
78514;SHT31;67814;51.976;5.810;2023-04-15T10:05:09;13.7;50.0
78514;SHT31;67814;51.976;5.810;2023-04-15T10:07:41;13.7;50.0
78514;SHT31;67814;51.976;5.810;2023-04-15T10:10:12;13.8;50.7
78514;SHT31;67814;51.976;5.810;2023-04-15T10:12:44;13.8;49.8
78514;SHT31;67814;51.976;5.810;2023-04-15T10:15:15;13.9;50.2
78514;SHT31;67814;51.976;5.810;2023-04-15T10:17:47;13.9;50.3
78514;SHT31;67814;51.976;5.810;2023-04-15T10:20:19;14.0;50.5
78514;SHT31;67814;51.976;5.810;2023-04-15T10:22:52;14.1;50.0
78514;SHT31;67814;51.976;5.810;2023-04-15T10:25:22;14.2;49.0
78514;SHT31;67814;51.976;5.810;2023-04-15T10:27:53;14.2;49.4
78514;SHT31;67814;51.976;5.810;2023-04-15T10:30:26;14.3;48.6
78514;SHT31;67814;51.976;5.810;2023-04-15T10:32:59;14.4;49.3
78514;SHT31;67814;51.976;5.810;2023-04-15T10:35:31;14.4;49.7
78514;SHT31;67814;51.976;5.810;2023-04-15T10:38:31;14.6;49.6
78514;SHT31;67814;51.976;5.810;2023-04-15T10:41:15;14.7;46.1
78514;SHT31;67814;51.976;5.810;2023-04-15T10:43:51;14.8;46.0
78514;SHT31;67814;51.976;5.810;2023-04-15T10:46:36;14.8;46.0
78514;SHT31;67814;51.976;5.810;2023-04-15T10:49:11;14.9;46.6
78514;SHT31;67814;51.976;5.810;2023-04-15T10:51:42;14.9;47.1
78514;SHT31;67814;51.976;5.810;2023-04-15T10:54:16;15.0;47.7
78514;SHT31;67814;51.976;5.810;2023-04-15T10:57:05;15.1;47.5
78514;SHT31;67814;51.976;5.810;2023-04-15T10:59:28;15.2;45.6
78514;SHT31;67814;51.976;5.810;2023-04-15T11:02:00;15.2;45.4
78514;SHT31;67814;51.976;5.810;2023-04-15T11:04:52;15.3;44.5
78514;SHT31;67814;51.976;5.810;2023-04-15T11:07:35;15.3;44.7
78514;SHT31;67814;51.976;5.810;2023-04-15T11:12:59;15.3;44.3
78514;SHT31;67814;51.976;5.810;2023-04-15T11:15:32;15.3;45.3
78514;SHT31;67814;51.976;5.810;2023-04-15T11:18:10;15.4;45.9
78514;SHT31;67814;51.976;5.810;2023-04-15T11:20:42;15.4;46.3
78514;SHT31;67814;51.976;5.810;2023-04-15T11:23:14;15.5;45.4
78514;SHT31;67814;51.976;5.810;2023-04-15T11:25:44;15.5;45.4
78514;SHT31;67814;51.976;5.810;2023-04-15T11:28:15;15.5;44.8
78514;SHT31;67814;51.976;5.810;2023-04-15T11:30:44;15.6;44.5
78514;SHT31;67814;51.976;5.810;2023-04-15T11:33:14;15.6;44.6
78514;SHT31;67814;51.976;5.810;2023-04-15T11:35:44;15.6;44.0
78514;SHT31;67814;51.976;5.810;2023-04-15T11:38:14;15.6;44.7
78514;SHT31;67814;51.976;5.810;2023-04-15T11:40:45;15.6;44.0
78514;SHT31;67814;51.976;5.810;2023-04-15T11:43:17;15.6;44.4
78514;SHT31;67814;51.976;5.810;2023-04-15T11:45:52;15.7;43.7
78514;SHT31;67814;51.976;5.810;2023-04-15T11:48:24;15.7;43.8
78514;SHT31;67814;51.976;5.810;2023-04-15T11:50:56;15.7;43.0
78514;SHT31;67814;51.976;5.810;2023-04-15T11:53:39;15.8;43.7
78514;SHT31;67814;51.976;5.810;2023-04-15T11:56:16;15.8;44.3
78514;SHT31;67814;51.976;5.810;2023-04-15T11:58:45;15.8;45.0
78514;SHT31;67814;51.976;5.810;2023-04-15T12:01:19;15.8;44.8
78514;SHT31;67814;51.976;5.810;2023-04-15T12:03:48;15.8;44.0
78514;SHT31;67814;51.976;5.810;2023-04-15T12:06:20;15.9;43.4
78514;SHT31;67814;51.976;5.810;2023-04-15T12:08:56;15.9;43.8
78514;SHT31;67814;51.976;5.810;2023-04-15T12:11:32;16.0;43.3
78514;SHT31;67814;51.976;5.810;2023-04-15T12:14:07;16.0;44.4
78514;SHT31;67814;51.976;5.810;2023-04-15T12:16:39;16.0;43.8
78514;SHT31;67814;51.976;5.810;2023-04-15T12:19:11;16.1;44.1
78514;SHT31;67814;51.976;5.810;2023-04-15T12:21:45;16.1;43.8
78514;SHT31;67814;51.976;5.810;2023-04-15T12:24:19;16.1;43.7
78514;SHT31;67814;51.976;5.810;2023-04-15T12:26:51;16.1;43.9
78514;SHT31;67814;51.976;5.810;2023-04-15T12:29:25;16.1;44.5
78514;SHT31;67814;51.976;5.810;2023-04-15T12:31:58;16.2;43.8
78514;SHT31;67814;51.976;5.810;2023-04-15T12:34:30;16.2;43.6
78514;SHT31;67814;51.976;5.810;2023-04-15T12:37:02;16.2;43.0
78514;SHT31;67814;51.976;5.810;2023-04-15T12:39:35;16.2;43.1
78514;SHT31;67814;51.976;5.810;2023-04-15T12:42:06;16.2;44.2
78514;SHT31;67814;51.976;5.810;2023-04-15T12:44:37;16.1;44.4
78514;SHT31;67814;51.976;5.810;2023-04-15T12:47:09;16.1;44.6
78514;SHT31;67814;51.976;5.810;2023-04-15T12:49:39;16.0;44.1
78514;SHT31;67814;51.976;5.810;2023-04-15T12:52:11;15.9;45.1
78514;SHT31;67814;51.976;5.810;2023-04-15T12:54:41;15.9;44.7
78514;SHT31;67814;51.976;5.810;2023-04-15T12:57:13;15.9;45.2
78514;SHT31;67814;51.976;5.810;2023-04-15T12:59:44;15.9;44.3
78514;SHT31;67814;51.976;5.810;2023-04-15T13:02:13;15.9;44.5
78514;SHT31;67814;51.976;5.810;2023-04-15T13:04:43;15.9;45.2
78514;SHT31;67814;51.976;5.810;2023-04-15T13:07:12;15.9;44.9
78514;SHT31;67814;51.976;5.810;2023-04-15T13:09:42;16.0;44.2
78514;SHT31;67814;51.976;5.810;2023-04-15T13:12:12;16.0;43.5
78514;SHT31;67814;51.976;5.810;2023-04-15T13:14:42;16.0;43.5
78514;SHT31;67814;51.976;5.810;2023-04-15T13:17:12;16.0;44.2
78514;SHT31;67814;51.976;5.810;2023-04-15T13:19:43;16.0;44.0
78514;SHT31;67814;51.976;5.810;2023-04-15T13:22:13;15.9;46.0
78514;SHT31;67814;51.976;5.810;2023-04-15T13:24:43;15.9;45.1
78514;SHT31;67814;51.976;5.810;2023-04-15T13:27:13;15.9;44.1
78514;SHT31;67814;51.976;5.810;2023-04-15T13:29:42;15.9;44.1
78514;SHT31;67814;51.976;5.810;2023-04-15T13:32:12;15.9;44.9
78514;SHT31;67814;51.976;5.810;2023-04-15T13:34:42;16.0;44.6
78514;SHT31;67814;51.976;5.810;2023-04-15T13:37:11;16.0;44.5
78514;SHT31;67814;51.976;5.810;2023-04-15T13:39:41;16.0;44.2
78514;SHT31;67814;51.976;5.810;2023-04-15T13:42:10;16.1;43.8
78514;SHT31;67814;51.976;5.810;2023-04-15T13:44:40;16.0;43.7
78514;SHT31;67814;51.976;5.810;2023-04-15T13:47:10;16.0;44.7
78514;SHT31;67814;51.976;5.810;2023-04-15T13:49:41;16.0;44.7
78514;SHT31;67814;51.976;5.810;2023-04-15T13:52:11;16.0;44.3
78514;SHT31;67814;51.976;5.810;2023-04-15T13:54:42;16.0;44.3
78514;SHT31;67814;51.976;5.810;2023-04-15T13:57:13;15.9;44.2
78514;SHT31;67814;51.976;5.810;2023-04-15T13:59:43;15.9;44.2
78514;SHT31;67814;51.976;5.810;2023-04-15T14:02:13;15.9;44.5
78514;SHT31;67814;51.976;5.810;2023-04-15T14:04:42;15.9;44.6
78514;SHT31;67814;51.976;5.810;2023-04-15T14:07:12;15.8;44.6
78514;SHT31;67814;51.976;5.810;2023-04-15T14:09:42;15.8;45.1
78514;SHT31;67814;51.976;5.810;2023-04-15T14:12:11;15.7;45.0
78514;SHT31;67814;51.976;5.810;2023-04-15T14:14:41;15.6;45.3
78514;SHT31;67814;51.976;5.810;2023-04-15T14:17:11;15.5;45.9
78514;SHT31;67814;51.976;5.810;2023-04-15T14:19:40;15.4;46.1
78514;SHT31;67814;51.976;5.810;2023-04-15T14:22:10;15.3;46.6
78514;SHT31;67814;51.976;5.810;2023-04-15T14:24:40;15.3;47.2
78514;SHT31;67814;51.976;5.810;2023-04-15T14:27:09;15.2;46.8
78514;SHT31;67814;51.976;5.810;2023-04-15T14:29:41;15.2;46.5
78514;SHT31;67814;51.976;5.810;2023-04-15T14:32:11;15.1;47.2
78514;SHT31;67814;51.976;5.810;2023-04-15T14:34:40;15.0;47.3
78514;SHT31;67814;51.976;5.810;2023-04-15T14:37:10;14.9;47.0
78514;SHT31;67814;51.976;5.810;2023-04-15T14:39:40;14.7;47.7
78514;SHT31;67814;51.976;5.810;2023-04-15T14:42:09;14.7;48.6
78514;SHT31;67814;51.976;5.810;2023-04-15T14:44:39;14.6;49.5
78514;SHT31;67814;51.976;5.810;2023-04-15T14:47:11;14.6;49.2
78514;SHT31;67814;51.976;5.810;2023-04-15T14:49:40;14.6;49.5
78514;SHT31;67814;51.976;5.810;2023-04-15T14:52:11;14.6;49.1
78514;SHT31;67814;51.976;5.810;2023-04-15T14:54:40;14.5;49.2
78514;SHT31;67814;51.976;5.810;2023-04-15T14:57:10;14.5;50.0
78514;SHT31;67814;51.976;5.810;2023-04-15T14:59:40;14.4;49.8
78514;SHT31;67814;51.976;5.810;2023-04-15T15:02:09;14.3;50.3
78514;SHT31;67814;51.976;5.810;2023-04-15T15:04:39;14.3;50.8
78514;SHT31;67814;51.976;5.810;2023-04-15T15:07:09;14.2;51.1
78514;SHT31;67814;51.976;5.810;2023-04-15T15:09:38;14.2;51.2
78514;SHT31;67814;51.976;5.810;2023-04-15T15:12:08;14.1;51.2
78514;SHT31;67814;51.976;5.810;2023-04-15T15:14:38;14.1;51.3
78514;SHT31;67814;51.976;5.810;2023-04-15T15:17:10;14.1;51.2
78514;SHT31;67814;51.976;5.810;2023-04-15T15:19:40;14.1;51.3
78514;SHT31;67814;51.976;5.810;2023-04-15T15:22:09;14.1;50.9
78514;SHT31;67814;51.976;5.810;2023-04-15T15:24:39;14.1;51.5
78514;SHT31;67814;51.976;5.810;2023-04-15T15:27:09;14.0;51.6
78514;SHT31;67814;51.976;5.810;2023-04-15T15:29:38;13.9;52.0
78514;SHT31;67814;51.976;5.810;2023-04-15T15:32:08;13.9;52.3
78514;SHT31;67814;51.976;5.810;2023-04-15T15:34:38;13.9;52.7
78514;SHT31;67814;51.976;5.810;2023-04-15T15:37:07;13.9;52.8
78514;SHT31;67814;51.976;5.810;2023-04-15T15:39:39;13.8;52.7
78514;SHT31;67814;51.976;5.810;2023-04-15T15:42:10;13.7;53.1
78514;SHT31;67814;51.976;5.810;2023-04-15T15:44:40;13.6;53.2
78514;SHT31;67814;51.976;5.810;2023-04-15T15:47:10;13.6;53.0
78514;SHT31;67814;51.976;5.810;2023-04-15T15:49:42;13.5;53.1
78514;SHT31;67814;51.976;5.810;2023-04-15T15:52:12;13.4;53.7
78514;SHT31;67814;51.976;5.810;2023-04-15T15:54:42;13.4;53.6
78514;SHT31;67814;51.976;5.810;2023-04-15T15:57:14;13.4;53.5
78514;SHT31;67814;51.976;5.810;2023-04-15T15:59:43;13.3;53.7
78514;SHT31;67814;51.976;5.810;2023-04-15T16:02:13;13.3;54.4
78514;SHT31;67814;51.976;5.810;2023-04-15T16:04:42;13.2;54.3
78514;SHT31;67814;51.976;5.810;2023-04-15T16:07:12;13.2;54.7
78514;SHT31;67814;51.976;5.810;2023-04-15T16:09:42;13.2;55.0
78514;SHT31;67814;51.976;5.810;2023-04-15T16:12:12;13.1;54.7
78514;SHT31;67814;51.976;5.810;2023-04-15T16:14:42;13.1;54.7
78514;SHT31;67814;51.976;5.810;2023-04-15T16:17:12;13.0;54.7
78514;SHT31;67814;51.976;5.810;2023-04-15T16:19:41;13.0;54.9
78514;SHT31;67814;51.976;5.810;2023-04-15T16:22:11;13.0;55.0
78514;SHT31;67814;51.976;5.810;2023-04-15T16:24:41;13.0;55.1
78514;SHT31;67814;51.976;5.810;2023-04-15T16:27:10;12.9;54.9